sensor_id;sensor_type;location;lat;lon;timestamp;P1;durP1;ratioP1;P2;durP2;ratioP2
44452;SDS011;30155;52.164;21.236;2022-11-15T00:03:25;26.87;;;18.00;;
44452;SDS011;30155;52.164;21.236;2022-11-15T00:08:36;23.20;;;18.92;;
44452;SDS011;30155;52.164;21.236;2022-11-15T00:13:49;24.82;;;18.07;;
44452;SDS011;30155;52.164;21.236;2022-11-15T00:18:58;25.52;;;19.20;;
44452;SDS011;30155;52.164;21.236;2022-11-15T00:24:08;27.37;;;20.25;;
44452;SDS011;30155;52.164;21.236;2022-11-15T00:29:18;28.38;;;19.57;;
44452;SDS011;30155;52.164;21.236;2022-11-15T00:34:27;26.90;;;19.37;;
44452;SDS011;30155;52.164;21.236;2022-11-15T00:39:37;25.62;;;18.90;;
44452;SDS011;30155;52.164;21.236;2022-11-15T00:44:46;29.27;;;19.20;;
44452;SDS011;30155;52.164;21.236;2022-11-15T00:49:56;24.75;;;18.20;;
44452;SDS011;30155;52.164;21.236;2022-11-15T00:55:05;26.62;;;19.30;;
44452;SDS011;30155;52.164;21.236;2022-11-15T01:00:16;27.98;;;19.60;;
44452;SDS011;30155;52.164;21.236;2022-11-15T01:05:26;24.60;;;18.02;;
44452;SDS011;30155;52.164;21.236;2022-11-15T01:10:36;23.70;;;17.98;;
44452;SDS011;30155;52.164;21.236;2022-11-15T01:15:46;31.20;;;22.07;;
44452;SDS011;30155;52.164;21.236;2022-11-15T01:20:56;28.25;;;19.80;;
44452;SDS011;30155;52.164;21.236;2022-11-15T01:26:06;27.90;;;20.50;;
44452;SDS011;30155;52.164;21.236;2022-11-15T01:31:19;32.75;;;23.27;;
44452;SDS011;30155;52.164;21.236;2022-11-15T01:36:30;33.83;;;23.10;;
44452;SDS011;30155;52.164;21.236;2022-11-15T01:41:40;29.77;;;22.00;;
44452;SDS011;30155;52.164;21.236;2022-11-15T01:46:50;34.73;;;23.10;;
44452;SDS011;30155;52.164;21.236;2022-11-15T01:57:24;31.00;;;21.77;;
44452;SDS011;30155;52.164;21.236;2022-11-15T02:02:34;35.88;;;24.77;;
44452;SDS011;30155;52.164;21.236;2022-11-15T02:07:46;37.30;;;24.02;;
44452;SDS011;30155;52.164;21.236;2022-11-15T02:12:57;37.67;;;24.75;;
44452;SDS011;30155;52.164;21.236;2022-11-15T02:18:22;37.60;;;24.27;;
44452;SDS011;30155;52.164;21.236;2022-11-15T02:29:14;40.88;;;27.42;;
44452;SDS011;30155;52.164;21.236;2022-11-15T02:45:27;33.50;;;23.52;;
44452;SDS011;30155;52.164;21.236;2022-11-15T02:50:41;38.48;;;24.63;;
44452;SDS011;30155;52.164;21.236;2022-11-15T02:55:52;34.45;;;23.80;;
44452;SDS011;30155;52.164;21.236;2022-11-15T03:01:26;35.05;;;23.40;;
44452;SDS011;30155;52.164;21.236;2022-11-15T03:12:10;35.85;;;23.98;;
44452;SDS011;30155;52.164;21.236;2022-11-15T03:17:26;31.80;;;20.95;;
44452;SDS011;30155;52.164;21.236;2022-11-15T03:22:42;30.40;;;20.65;;
44452;SDS011;30155;52.164;21.236;2022-11-15T03:27:53;35.23;;;23.45;;
44452;SDS011;30155;52.164;21.236;2022-11-15T03:33:07;34.18;;;23.85;;
44452;SDS011;30155;52.164;21.236;2022-11-15T03:38:22;29.30;;;19.65;;
44452;SDS011;30155;52.164;21.236;2022-11-15T03:43:46;33.53;;;23.25;;
44452;SDS011;30155;52.164;21.236;2022-11-15T03:49:10;34.55;;;22.98;;
44452;SDS011;30155;52.164;21.236;2022-11-15T03:54:36;34.38;;;21.45;;
44452;SDS011;30155;52.164;21.236;2022-11-15T03:59:52;35.60;;;22.58;;
44452;SDS011;30155;52.164;21.236;2022-11-15T04:05:02;32.25;;;21.85;;
44452;SDS011;30155;52.164;21.236;2022-11-15T04:10:13;32.80;;;21.48;;
44452;SDS011;30155;52.164;21.236;2022-11-15T04:15:23;36.08;;;21.62;;
44452;SDS011;30155;52.164;21.236;2022-11-15T04:20:33;36.15;;;22.90;;
44452;SDS011;30155;52.164;21.236;2022-11-15T04:31:18;34.53;;;21.45;;
44452;SDS011;30155;52.164;21.236;2022-11-15T04:36:27;30.97;;;21.12;;
44452;SDS011;30155;52.164;21.236;2022-11-15T04:47:05;35.68;;;21.02;;
44452;SDS011;30155;52.164;21.236;2022-11-15T04:52:14;32.33;;;21.00;;
44452;SDS011;30155;52.164;21.236;2022-11-15T04:57:24;35.05;;;20.55;;
44452;SDS011;30155;52.164;21.236;2022-11-15T05:02:33;30.37;;;20.02;;
44452;SDS011;30155;52.164;21.236;2022-11-15T05:13:11;34.27;;;21.80;;
44452;SDS011;30155;52.164;21.236;2022-11-15T05:18:21;36.63;;;24.30;;
44452;SDS011;30155;52.164;21.236;2022-11-15T05:23:30;33.05;;;19.87;;
44452;SDS011;30155;52.164;21.236;2022-11-15T05:28:40;37.03;;;23.00;;
44452;SDS011;30155;52.164;21.236;2022-11-15T05:33:50;37.30;;;23.42;;
44452;SDS011;30155;52.164;21.236;2022-11-15T05:39:01;37.55;;;22.95;;
44452;SDS011;30155;52.164;21.236;2022-11-15T05:44:12;40.12;;;24.75;;
44452;SDS011;30155;52.164;21.236;2022-11-15T05:49:26;39.35;;;23.77;;
44452;SDS011;30155;52.164;21.236;2022-11-15T05:54:39;37.83;;;22.90;;
44452;SDS011;30155;52.164;21.236;2022-11-15T05:59:49;38.08;;;23.25;;
44452;SDS011;30155;52.164;21.236;2022-11-15T06:05:00;35.65;;;21.68;;
44452;SDS011;30155;52.164;21.236;2022-11-15T06:10:10;39.88;;;22.50;;
44452;SDS011;30155;52.164;21.236;2022-11-15T06:15:38;36.93;;;21.12;;
44452;SDS011;30155;52.164;21.236;2022-11-15T06:20:48;38.00;;;21.80;;
44452;SDS011;30155;52.164;21.236;2022-11-15T06:25:58;36.73;;;21.55;;
44452;SDS011;30155;52.164;21.236;2022-11-15T06:31:10;44.88;;;23.98;;
44452;SDS011;30155;52.164;21.236;2022-11-15T06:36:20;38.70;;;23.02;;
44452;SDS011;30155;52.164;21.236;2022-11-15T06:41:30;45.23;;;24.65;;
44452;SDS011;30155;52.164;21.236;2022-11-15T06:46:44;48.60;;;25.60;;
44452;SDS011;30155;52.164;21.236;2022-11-15T06:51:54;42.05;;;23.65;;
44452;SDS011;30155;52.164;21.236;2022-11-15T06:57:06;44.70;;;25.27;;
44452;SDS011;30155;52.164;21.236;2022-11-15T07:02:16;43.68;;;22.42;;
44452;SDS011;30155;52.164;21.236;2022-11-15T07:07:25;38.55;;;21.68;;
44452;SDS011;30155;52.164;21.236;2022-11-15T07:12:35;40.65;;;23.32;;
44452;SDS011;30155;52.164;21.236;2022-11-15T07:17:45;39.60;;;21.93;;
44452;SDS011;30155;52.164;21.236;2022-11-15T07:23:04;40.00;;;21.80;;
44452;SDS011;30155;52.164;21.236;2022-11-15T07:28:14;38.65;;;20.70;;
44452;SDS011;30155;52.164;21.236;2022-11-15T07:33:24;38.73;;;20.70;;
44452;SDS011;30155;52.164;21.236;2022-11-15T07:38:34;36.65;;;21.40;;
44452;SDS011;30155;52.164;21.236;2022-11-15T07:43:44;32.15;;;20.02;;
44452;SDS011;30155;52.164;21.236;2022-11-15T07:48:54;32.67;;;18.95;;
44452;SDS011;30155;52.164;21.236;2022-11-15T07:54:03;33.58;;;17.80;;
44452;SDS011;30155;52.164;21.236;2022-11-15T07:59:13;29.90;;;17.60;;
44452;SDS011;30155;52.164;21.236;2022-11-15T08:04:22;33.92;;;19.67;;
44452;SDS011;30155;52.164;21.236;2022-11-15T08:09:32;36.58;;;20.55;;
44452;SDS011;30155;52.164;21.236;2022-11-15T08:14:41;38.02;;;20.45;;
44452;SDS011;30155;52.164;21.236;2022-11-15T08:19:51;32.48;;;18.98;;
44452;SDS011;30155;52.164;21.236;2022-11-15T08:25:00;29.98;;;18.57;;
44452;SDS011;30155;52.164;21.236;2022-11-15T08:30:11;33.38;;;18.92;;
44452;SDS011;30155;52.164;21.236;2022-11-15T08:35:21;33.45;;;20.25;;
44452;SDS011;30155;52.164;21.236;2022-11-15T08:40:31;33.10;;;19.57;;
44452;SDS011;30155;52.164;21.236;2022-11-15T08:45:40;29.45;;;18.65;;
44452;SDS011;30155;52.164;21.236;2022-11-15T08:50:53;25.55;;;18.12;;
44452;SDS011;30155;52.164;21.236;2022-11-15T08:56:09;28.17;;;16.57;;
44452;SDS011;30155;52.164;21.236;2022-11-15T09:01:20;25.95;;;16.97;;
44452;SDS011;30155;52.164;21.236;2022-11-15T09:06:30;30.30;;;18.95;;
44452;SDS011;30155;52.164;21.236;2022-11-15T09:11:40;29.05;;;17.95;;
44452;SDS011;30155;52.164;21.236;2022-11-15T09:16:53;20.20;;;14.55;;
44452;SDS011;30155;52.164;21.236;2022-11-15T09:22:05;35.70;;;20.30;;
44452;SDS011;30155;52.164;21.236;2022-11-15T09:27:16;33.25;;;19.37;;
44452;SDS011;30155;52.164;21.236;2022-11-15T09:32:28;30.12;;;18.55;;
44452;SDS011;30155;52.164;21.236;2022-11-15T09:37:38;33.80;;;20.25;;
44452;SDS011;30155;52.164;21.236;2022-11-15T09:53:38;28.27;;;17.45;;
44452;SDS011;30155;52.164;21.236;2022-11-15T09:58:36;27.22;;;17.98;;
44452;SDS011;30155;52.164;21.236;2022-11-15T10:03:43;26.77;;;17.65;;
44452;SDS011;30155;52.164;21.236;2022-11-15T10:13:50;29.07;;;18.45;;
44452;SDS011;30155;52.164;21.236;2022-11-15T10:19:04;25.08;;;16.87;;
44452;SDS011;30155;52.164;21.236;2022-11-15T10:24:25;29.92;;;18.77;;
44452;SDS011;30155;52.164;21.236;2022-11-15T10:29:22;27.37;;;18.37;;
44452;SDS011;30155;52.164;21.236;2022-11-15T10:34:16;27.50;;;17.52;;
44452;SDS011;30155;52.164;21.236;2022-11-15T10:39:11;26.55;;;18.15;;
44452;SDS011;30155;52.164;21.236;2022-11-15T10:49:23;30.80;;;19.00;;
44452;SDS011;30155;52.164;21.236;2022-11-15T10:54:24;29.02;;;17.40;;
44452;SDS011;30155;52.164;21.236;2022-11-15T10:59:23;28.87;;;19.23;;
44452;SDS011;30155;52.164;21.236;2022-11-15T11:04:21;26.05;;;18.00;;
44452;SDS011;30155;52.164;21.236;2022-11-15T11:09:22;26.85;;;18.07;;
44452;SDS011;30155;52.164;21.236;2022-11-15T11:14:32;28.27;;;18.45;;
44452;SDS011;30155;52.164;21.236;2022-11-15T11:41:10;28.75;;;20.10;;
44452;SDS011;30155;52.164;21.236;2022-11-15T11:52:13;28.10;;;20.12;;
44452;SDS011;30155;52.164;21.236;2022-11-15T11:56:33;31.02;;;21.55;;
44452;SDS011;30155;52.164;21.236;2022-11-15T12:11:50;27.67;;;19.57;;
44452;SDS011;30155;52.164;21.236;2022-11-15T12:17:09;27.82;;;19.25;;
44452;SDS011;30155;52.164;21.236;2022-11-15T12:27:25;31.00;;;21.23;;
44452;SDS011;30155;52.164;21.236;2022-11-15T12:32:32;29.35;;;19.25;;
44452;SDS011;30155;52.164;21.236;2022-11-15T12:42:40;33.63;;;22.60;;
44452;SDS011;30155;52.164;21.236;2022-11-15T12:47:35;28.65;;;21.15;;
44452;SDS011;30155;52.164;21.236;2022-11-15T12:52:26;32.65;;;19.48;;
44452;SDS011;30155;52.164;21.236;2022-11-15T13:02:33;27.82;;;19.90;;
44452;SDS011;30155;52.164;21.236;2022-11-15T13:17:32;35.35;;;22.55;;
44452;SDS011;30155;52.164;21.236;2022-11-15T13:22:28;32.53;;;20.83;;
44452;SDS011;30155;52.164;21.236;2022-11-15T13:27:52;35.25;;;23.38;;
44452;SDS011;30155;52.164;21.236;2022-11-15T13:32:48;31.45;;;21.40;;
44452;SDS011;30155;52.164;21.236;2022-11-15T13:37:40;46.75;;;29.02;;
44452;SDS011;30155;52.164;21.236;2022-11-15T13:42:32;34.92;;;23.80;;
44452;SDS011;30155;52.164;21.236;2022-11-15T13:47:28;38.98;;;23.20;;
44452;SDS011;30155;52.164;21.236;2022-11-15T13:52:19;45.23;;;26.40;;
44452;SDS011;30155;52.164;21.236;2022-11-15T14:02:13;37.23;;;24.43;;
44452;SDS011;30155;52.164;21.236;2022-11-15T14:07:18;47.13;;;29.45;;
44452;SDS011;30155;52.164;21.236;2022-11-15T14:12:31;54.65;;;31.60;;
44452;SDS011;30155;52.164;21.236;2022-11-15T14:17:36;47.00;;;29.15;;
44452;SDS011;30155;52.164;21.236;2022-11-15T14:22:29;43.07;;;28.10;;
44452;SDS011;30155;52.164;21.236;2022-11-15T14:27:25;40.38;;;27.22;;
44452;SDS011;30155;52.164;21.236;2022-11-15T14:32:20;41.60;;;25.97;;
44452;SDS011;30155;52.164;21.236;2022-11-15T14:37:21;41.95;;;24.12;;
44452;SDS011;30155;52.164;21.236;2022-11-15T14:42:16;46.53;;;26.62;;
44452;SDS011;30155;52.164;21.236;2022-11-15T14:47:08;37.90;;;26.68;;
44452;SDS011;30155;52.164;21.236;2022-11-15T14:52:00;40.12;;;25.35;;
44452;SDS011;30155;52.164;21.236;2022-11-15T14:56:51;38.73;;;24.80;;
44452;SDS011;30155;52.164;21.236;2022-11-15T15:01:42;37.95;;;23.22;;
44452;SDS011;30155;52.164;21.236;2022-11-15T15:06:33;36.55;;;24.02;;
44452;SDS011;30155;52.164;21.236;2022-11-15T15:11:29;47.23;;;27.93;;
44452;SDS011;30155;52.164;21.236;2022-11-15T15:16:27;43.73;;;27.95;;
44452;SDS011;30155;52.164;21.236;2022-11-15T15:21:20;42.67;;;28.17;;
44452;SDS011;30155;52.164;21.236;2022-11-15T15:26:15;40.05;;;27.40;;
44452;SDS011;30155;52.164;21.236;2022-11-15T15:31:07;46.92;;;28.23;;
44452;SDS011;30155;52.164;21.236;2022-11-15T15:36:00;47.88;;;27.82;;
44452;SDS011;30155;52.164;21.236;2022-11-15T15:40:52;45.03;;;28.42;;
44452;SDS011;30155;52.164;21.236;2022-11-15T15:45:43;46.95;;;27.45;;
44452;SDS011;30155;52.164;21.236;2022-11-15T15:50:35;49.03;;;31.42;;
44452;SDS011;30155;52.164;21.236;2022-11-15T15:55:27;45.65;;;27.40;;
44452;SDS011;30155;52.164;21.236;2022-11-15T16:00:19;46.20;;;27.25;;
44452;SDS011;30155;52.164;21.236;2022-11-15T16:05:15;43.98;;;26.45;;
44452;SDS011;30155;52.164;21.236;2022-11-15T16:10:18;41.63;;;24.65;;
44452;SDS011;30155;52.164;21.236;2022-11-15T16:15:15;37.75;;;26.48;;
44452;SDS011;30155;52.164;21.236;2022-11-15T16:20:15;45.52;;;27.85;;
44452;SDS011;30155;52.164;21.236;2022-11-15T16:25:13;47.03;;;28.62;;
44452;SDS011;30155;52.164;21.236;2022-11-15T16:30:07;48.90;;;29.92;;
44452;SDS011;30155;52.164;21.236;2022-11-15T16:35:02;45.60;;;29.07;;
44452;SDS011;30155;52.164;21.236;2022-11-15T16:39:55;50.98;;;29.72;;
44452;SDS011;30155;52.164;21.236;2022-11-15T16:44:47;47.25;;;28.25;;
44452;SDS011;30155;52.164;21.236;2022-11-15T16:49:40;51.65;;;30.95;;
44452;SDS011;30155;52.164;21.236;2022-11-15T16:54:34;56.53;;;34.10;;
44452;SDS011;30155;52.164;21.236;2022-11-15T16:59:25;57.80;;;33.95;;
44452;SDS011;30155;52.164;21.236;2022-11-15T17:04:17;46.60;;;29.27;;
44452;SDS011;30155;52.164;21.236;2022-11-15T17:09:16;48.98;;;29.23;;
44452;SDS011;30155;52.164;21.236;2022-11-15T17:14:14;54.23;;;30.95;;
44452;SDS011;30155;52.164;21.236;2022-11-15T17:19:13;45.75;;;28.50;;
44452;SDS011;30155;52.164;21.236;2022-11-15T17:24:07;44.85;;;25.30;;
44452;SDS011;30155;52.164;21.236;2022-11-15T17:29:00;46.50;;;29.00;;
44452;SDS011;30155;52.164;21.236;2022-11-15T17:33:51;47.67;;;28.45;;
44452;SDS011;30155;52.164;21.236;2022-11-15T17:38:43;53.60;;;32.63;;
44452;SDS011;30155;52.164;21.236;2022-11-15T17:43:36;52.65;;;30.02;;
44452;SDS011;30155;52.164;21.236;2022-11-15T17:48:28;57.80;;;28.87;;
44452;SDS011;30155;52.164;21.236;2022-11-15T17:53:19;51.63;;;29.40;;
44452;SDS011;30155;52.164;21.236;2022-11-15T17:58:11;50.88;;;26.95;;
44452;SDS011;30155;52.164;21.236;2022-11-15T18:03:02;47.00;;;27.00;;
44452;SDS011;30155;52.164;21.236;2022-11-15T18:07:53;40.40;;;24.63;;
44452;SDS011;30155;52.164;21.236;2022-11-15T18:12:44;44.38;;;25.27;;
44452;SDS011;30155;52.164;21.236;2022-11-15T18:17:39;41.68;;;24.92;;
44452;SDS011;30155;52.164;21.236;2022-11-15T18:22:31;42.05;;;22.15;;
44452;SDS011;30155;52.164;21.236;2022-11-15T18:27:23;38.58;;;23.10;;
44452;SDS011;30155;52.164;21.236;2022-11-15T18:32:14;43.65;;;25.12;;
44452;SDS011;30155;52.164;21.236;2022-11-15T18:37:07;34.98;;;21.33;;
44452;SDS011;30155;52.164;21.236;2022-11-15T18:41:58;40.43;;;23.35;;
44452;SDS011;30155;52.164;21.236;2022-11-15T18:46:49;36.13;;;20.80;;
44452;SDS011;30155;52.164;21.236;2022-11-15T18:51:40;41.92;;;30.75;;
44452;SDS011;30155;52.164;21.236;2022-11-15T18:56:32;43.20;;;26.90;;
44452;SDS011;30155;52.164;21.236;2022-11-15T19:01:24;33.45;;;23.50;;
44452;SDS011;30155;52.164;21.236;2022-11-15T19:06:28;27.70;;;17.52;;
44452;SDS011;30155;52.164;21.236;2022-11-15T19:11:19;31.73;;;19.00;;
44452;SDS011;30155;52.164;21.236;2022-11-15T19:16:15;28.30;;;18.40;;
44452;SDS011;30155;52.164;21.236;2022-11-15T19:21:08;32.17;;;22.93;;
44452;SDS011;30155;52.164;21.236;2022-11-15T19:26:03;30.55;;;18.95;;
44452;SDS011;30155;52.164;21.236;2022-11-15T19:31:05;30.57;;;16.80;;
44452;SDS011;30155;52.164;21.236;2022-11-15T19:36:05;27.00;;;17.05;;
44452;SDS011;30155;52.164;21.236;2022-11-15T19:41:00;31.52;;;18.35;;
44452;SDS011;30155;52.164;21.236;2022-11-15T19:45:55;35.20;;;25.15;;
44452;SDS011;30155;52.164;21.236;2022-11-15T19:50:48;32.15;;;23.47;;
44452;SDS011;30155;52.164;21.236;2022-11-15T19:55:52;23.25;;;14.63;;
44452;SDS011;30155;52.164;21.236;2022-11-15T20:00:47;20.65;;;13.25;;
44452;SDS011;30155;52.164;21.236;2022-11-15T20:05:38;23.20;;;13.80;;
44452;SDS011;30155;52.164;21.236;2022-11-15T20:10:30;17.67;;;12.55;;
44452;SDS011;30155;52.164;21.236;2022-11-15T20:15:21;22.20;;;14.45;;
44452;SDS011;30155;52.164;21.236;2022-11-15T20:20:12;24.52;;;15.32;;
44452;SDS011;30155;52.164;21.236;2022-11-15T20:25:04;31.80;;;19.60;;
44452;SDS011;30155;52.164;21.236;2022-11-15T20:30:02;38.75;;;24.15;;
44452;SDS011;30155;52.164;21.236;2022-11-15T20:34:54;28.15;;;15.95;;
44452;SDS011;30155;52.164;21.236;2022-11-15T20:39:45;21.85;;;13.90;;
44452;SDS011;30155;52.164;21.236;2022-11-15T20:44:37;23.40;;;14.60;;
44452;SDS011;30155;52.164;21.236;2022-11-15T20:49:28;20.23;;;14.05;;
44452;SDS011;30155;52.164;21.236;2022-11-15T20:54:19;19.10;;;13.95;;
44452;SDS011;30155;52.164;21.236;2022-11-15T20:59:10;25.60;;;16.42;;
44452;SDS011;30155;52.164;21.236;2022-11-15T21:04:02;19.27;;;12.03;;
44452;SDS011;30155;52.164;21.236;2022-11-15T21:08:53;22.93;;;13.78;;
44452;SDS011;30155;52.164;21.236;2022-11-15T21:14:04;17.02;;;12.63;;
44452;SDS011;30155;52.164;21.236;2022-11-15T21:18:55;17.42;;;11.85;;
44452;SDS011;30155;52.164;21.236;2022-11-15T21:23:46;31.85;;;25.75;;
44452;SDS011;30155;52.164;21.236;2022-11-15T21:28:41;21.55;;;15.20;;
44452;SDS011;30155;52.164;21.236;2022-11-15T21:33:31;19.37;;;13.53;;
44452;SDS011;30155;52.164;21.236;2022-11-15T21:38:24;16.80;;;12.00;;
44452;SDS011;30155;52.164;21.236;2022-11-15T21:49:10;23.40;;;14.87;;
44452;SDS011;30155;52.164;21.236;2022-11-15T21:54:07;18.50;;;11.65;;
44452;SDS011;30155;52.164;21.236;2022-11-15T22:04:36;18.98;;;13.32;;
44452;SDS011;30155;52.164;21.236;2022-11-15T22:09:55;19.37;;;13.10;;
44452;SDS011;30155;52.164;21.236;2022-11-15T22:14:56;18.50;;;11.63;;
44452;SDS011;30155;52.164;21.236;2022-11-15T22:19:48;20.85;;;12.10;;
44452;SDS011;30155;52.164;21.236;2022-11-15T22:24:42;20.92;;;12.33;;
44452;SDS011;30155;52.164;21.236;2022-11-15T22:29:33;20.65;;;11.75;;
44452;SDS011;30155;52.164;21.236;2022-11-15T22:34:24;31.37;;;16.40;;
44452;SDS011;30155;52.164;21.236;2022-11-15T22:39:30;24.72;;;13.75;;
44452;SDS011;30155;52.164;21.236;2022-11-15T22:44:32;23.52;;;14.35;;
44452;SDS011;30155;52.164;21.236;2022-11-15T22:49:23;30.08;;;17.52;;
44452;SDS011;30155;52.164;21.236;2022-11-15T22:54:14;23.42;;;14.25;;
44452;SDS011;30155;52.164;21.236;2022-11-15T22:59:05;26.90;;;15.20;;
44452;SDS011;30155;52.164;21.236;2022-11-15T23:03:56;35.30;;;20.40;;
44452;SDS011;30155;52.164;21.236;2022-11-15T23:08:47;29.92;;;16.15;;
44452;SDS011;30155;52.164;21.236;2022-11-15T23:13:39;26.75;;;16.35;;
44452;SDS011;30155;52.164;21.236;2022-11-15T23:18:33;30.97;;;17.98;;
44452;SDS011;30155;52.164;21.236;2022-11-15T23:23:28;22.80;;;14.63;;
44452;SDS011;30155;52.164;21.236;2022-11-15T23:28:19;26.20;;;14.50;;
44452;SDS011;30155;52.164;21.236;2022-11-15T23:33:13;24.35;;;14.15;;
44452;SDS011;30155;52.164;21.236;2022-11-15T23:38:23;36.90;;;23.52;;
44452;SDS011;30155;52.164;21.236;2022-11-15T23:43:15;31.25;;;19.15;;
44452;SDS011;30155;52.164;21.236;2022-11-15T23:48:08;37.17;;;23.60;;
44452;SDS011;30155;52.164;21.236;2022-11-15T23:52:59;29.75;;;18.90;;
44452;SDS011;30155;52.164;21.236;2022-11-15T23:57:50;37.53;;;24.37;;
